Thunder radar more information blitzortung!


Radar de pluja more information rain snow radar


Visita la nostra xarxa de llocs de meteo:

Template documentation
and downloads

And another site



No particular awareness of the weather is required.    There are no Weather-warnings

Pagina Historial Weather Underground text

Diari Resum May 7, 2017 Unitats:  Imperial    Mètric   Tant
« Previous Dia
SegĂźent Dia »
Diari Setmana Mensual Anual Personalitzada
  Maxima: Minima: Media:
Temperatura: 76.8 °F 50.7 °F 61.9 °F
Punt de rosada: 53.6 °F 41.5 °F 49.5 °F
Humitat: 78 % 36 % 65 %
Wind Speed: 15 mph 0 mph 4.5 mph
RĂ fegues de vent: 15 mph - -
Vent:- - ESE
Pression baro: 30.2 in 30 in -
Precipitacions: 0 in    
Historical Graphs
 
 
Dades de taula per May 7, 2017
Temps Temperatura Punt de rosada Pression baro Vent Wind Speed RĂ fegues de vent Humitat Rainfall Rate (Hourly)
00:01 58.6 °F 45.7 °F 30.1 in ENE 3.6 mph 3.6 mph 62 % 0 in
00:05 52.5 °F 42.6 °F 30.1 in ENE 1 mph 2 mph 69 % 0 in
00:06 58.5 °F 45.5 °F 30.1 in NNE 4.6 mph 4.6 mph 62 % 0 in
00:15 52 °F 42.4 °F 30.1 in Calm   1 mph 70 % 0 in
00:25 51.8 °F 42.3 °F 30.1 in Calm     70 % 0 in
00:35 51.4 °F 42.3 °F 30.1 in WSW 1 mph 1 mph 71 % 0 in
00:45 51.1 °F 42.1 °F 30.1 in WSW 1 mph 2 mph 71 % 0 in
00:55 50.9 °F 41.5 °F 30.1 in WSW 2 mph 2 mph 70 % 0 in
01:05 51.3 °F 42.3 °F 30.1 in WSW 1 mph 2 mph 71 % 0 in
01:15 51.3 °F 43 °F 30.1 in Calm   1 mph 73 % 0 in
01:25 51.1 °F 43.2 °F 30.1 in Calm   1 mph 74 % 0 in
01:35 50.9 °F 43 °F 30.1 in Calm   1 mph 74 % 0 in
01:45 50.7 °F 42.4 °F 30.1 in North 1 mph 1 mph 73 % 0 in
01:55 50.9 °F 41.7 °F 30.1 in North 1 mph 2 mph 71 % 0 in
02:05 50.9 °F 42.3 °F 30.1 in Calm   3 mph 72 % 0 in
02:15 51.4 °F 42.3 °F 30.1 in NNW 1 mph 2 mph 71 % 0 in
02:25 51.6 °F 43 °F 30.1 in Calm   1 mph 72 % 0 in
02:35 52 °F 43 °F 30.1 in WSW 2 mph 3 mph 71 % 0 in
02:45 51.8 °F 42.6 °F 30.1 in WSW 2 mph 4 mph 71 % 0 in
02:55 52.2 °F 43.3 °F 30.1 in WSW 2 mph 3 mph 72 % 0 in
03:05 52.5 °F 43.9 °F 30.1 in SW 2 mph 3 mph 72 % 0 in
03:15 53.8 °F 45.3 °F 30.1 in Calm   2 mph 73 % 0 in
03:25 54.3 °F 45.5 °F 30.1 in SW 2 mph 2 mph 72 % 0 in
03:35 55.2 °F 46.8 °F 30.2 in SW 1 mph 2 mph 73 % 0 in
03:45 56.7 °F 47.7 °F 30.2 in Calm   2 mph 72 % 0 in
03:55 57.9 °F 48.2 °F 30.1 in SE 2 mph 2 mph 70 % 0 in
04:05 58.6 °F 48 °F 30.2 in East 1 mph 3 mph 68 % 0 in
04:15 58.6 °F 47.3 °F 30.2 in NE 3 mph 3 mph 66 % 0 in
04:25 60.1 °F 48.4 °F 30.2 in NE 3 mph 4 mph 65 % 0 in
04:35 60.1 °F 47.8 °F 30.2 in NE 2 mph 4 mph 64 % 0 in
04:45 61.3 °F 48.6 °F 30.2 in NE 3 mph 3 mph 63 % 0 in
04:55 62.1 °F 48.9 °F 30.2 in NW 2 mph 3 mph 62 % 0 in
05:05 64.2 °F 50 °F 30.2 in NW 1 mph 3 mph 60 % 0 in
05:15 64.4 °F 48.7 °F 30.2 in ENE 3 mph 4 mph 57 % 0 in
05:25 64.9 °F 48.9 °F 30.2 in ENE 1 mph 3 mph 56 % 0 in
05:35 66.9 °F 50.2 °F 30.1 in East 1 mph 2 mph 55 % 0 in
05:45 67.5 °F 49.3 °F 30.1 in SSW 2 mph 3 mph 52 % 0 in
05:55 67.8 °F 49.5 °F 30.1 in SSE 1 mph 5 mph 52 % 0 in
06:05 67.6 °F 48.9 °F 30.1 in SE 3 mph 4 mph 51 % 0 in
06:15 67.3 °F 48.9 °F 30.1 in SE 2 mph 4 mph 52 % 0 in
06:25 68 °F 48.7 °F 30.1 in SE 1 mph 4 mph 50 % 0 in
06:35 68.2 °F 49.5 °F 30.1 in East 1 mph 4 mph 51 % 0 in
06:45 68 °F 48.7 °F 30.1 in East 3 mph 4 mph 50 % 0 in
06:55 68.4 °F 48.6 °F 30.2 in ENE 1 mph 3 mph 49 % 0 in
07:05 69.4 °F 49.5 °F 30.2 in ENE 2 mph 4 mph 49 % 0 in
07:15 69.4 °F 48.9 °F 30.2 in East 5 mph 5 mph 48 % 0 in
07:25 70.3 °F 49.1 °F 30.1 in East 5 mph 5 mph 47 % 0 in
07:35 70 °F 48.2 °F 30.1 in ESE 5 mph 5 mph 46 % 0 in
07:45 72.5 °F 49.8 °F 30.1 in SE 2 mph 3 mph 45 % 0 in
07:55 70.7 °F 47.7 °F 30.1 in East 1 mph 4 mph 44 % 0 in
08:05 71.8 °F 47.5 °F 30.1 in East 3 mph 5 mph 42 % 0 in
08:15 73 °F 48.6 °F 30.1 in SE 3 mph 4 mph 42 % 0 in
08:25 73.9 °F 48 °F 30.1 in South 2 mph 6 mph 40 % 0 in
08:35 73 °F 47.3 °F 30.1 in ESE 3 mph 5 mph 40 % 0 in
08:45 74.8 °F 48.2 °F 30.1 in ESE 2 mph 6 mph 39 % 0 in
08:55 75.2 °F 46.4 °F 30.1 in SW 3 mph 6 mph 36 % 0 in
09:05 75.9 °F 47.8 °F 30.1 in SSW 2 mph 5 mph 37 % 0 in
09:15 75.4 °F 47.3 °F 30.1 in SSE 3 mph 4 mph 37 % 0 in
09:25 75.6 °F 48.9 °F 30.1 in SE 3 mph 6 mph 39 % 0 in
09:35 76.8 °F 48.6 °F 30.1 in SE 2 mph 4 mph 37 % 0 in
09:45 76.1 °F 49.3 °F 30.1 in SE 3 mph 5 mph 39 % 0 in
09:55 75.7 °F 50.4 °F 30.1 in SE 6 mph 8 mph 41 % 0 in
10:05 75.9 °F 50.5 °F 30.1 in ESE 3 mph 6 mph 41 % 0 in
10:15 75 °F 50.4 °F 30.1 in ESE 5 mph 6 mph 42 % 0 in
10:25 73.9 °F 50.5 °F 30.1 in ESE 7 mph 10 mph 44 % 0 in
10:35 72.5 °F 51.1 °F 30.1 in ESE 9 mph 11 mph 47 % 0 in
10:45 71.6 °F 50.9 °F 30.1 in ESE 9 mph 11 mph 48 % 0 in
10:55 71.1 °F 51.4 °F 30.1 in East 9 mph 15 mph 50 % 0 in
11:05 70.2 °F 50.5 °F 30.1 in East 5 mph 10 mph 50 % 0 in
11:15 69.4 °F 51.6 °F 30.1 in East 7 mph 13 mph 53 % 0 in
11:25 69.1 °F 51.6 °F 30.1 in ESE 8 mph 9 mph 54 % 0 in
11:35 68.9 °F 52.5 °F 30.1 in ESE 7 mph 10 mph 56 % 0 in
11:45 69.4 °F 53.1 °F 30.1 in ENE 6 mph 8 mph 56 % 0 in
11:55 68.9 °F 53.1 °F 30.1 in NE 9 mph 10 mph 57 % 0 in
12:05 68.2 °F 52.9 °F 30 in ENE 6 mph 8 mph 58 % 0 in
12:15 67.6 °F 53.2 °F 30 in East 10 mph 13 mph 60 % 0 in
12:25 67.5 °F 53.4 °F 30.1 in East 9 mph 11 mph 61 % 0 in
12:35 67.1 °F 53.6 °F 30.1 in East 8 mph 9 mph 62 % 0 in
12:45 66.9 °F 53.4 °F 30.1 in East 8 mph 10 mph 62 % 0 in
17:49 66.7 °F 53.2 °F 30 in East 5.8 mph 6.2 mph 62 % 0 in
17:55 66.6 °F 53.1 °F 30 in East 8 mph 15 mph 62 % 0 in
18:00 66.4 °F 53.1 °F 30 in ENE 8.1 mph 8.1 mph 62 % 0 in
18:05 66.2 °F 52.9 °F 30 in SE 12.7 mph 12.7 mph 62 % 0 in
18:10 65.8 °F 53.2 °F 30 in East 5 mph 11 mph 64 % 0 in
18:15 65.8 °F 53.2 °F 30.1 in East 8.1 mph 8.1 mph 64 % 0 in
18:20 65.5 °F 53.1 °F 30.1 in ENE 10.4 mph 10.4 mph 64 % 0 in
18:25 65.5 °F 53.1 °F 30.1 in ESE 10.4 mph 10.4 mph 64 % 0 in
18:30 65.3 °F 53.2 °F 30.1 in ESE 15 mph 15 mph 65 % 0 in
18:35 64.9 °F 52.9 °F 30.1 in ESE 10.4 mph 10.4 mph 65 % 0 in
18:40 64.8 °F 52.5 °F 30.1 in East 9 mph 15 mph 65 % 0 in
18:45 64.6 °F 52.5 °F 30.1 in ESE 7 mph 13 mph 65 % 0 in
18:50 64.6 °F 52.5 °F 30.1 in East 5 mph 10 mph 65 % 0 in
18:55 64.4 °F 52.3 °F 30.1 in East 12.7 mph 12.7 mph 65 % 0 in
19:00 64.2 °F 52.2 °F 30.1 in ENE 8.1 mph 8.1 mph 65 % 0 in
19:05 63.9 °F 52.3 °F 30.1 in SSE 11.5 mph 11.5 mph 66 % 0 in
19:10 63.7 °F 52.2 °F 30.1 in ENE 9.2 mph 9.2 mph 66 % 0 in
19:15 63.7 °F 52.2 °F 30.1 in ESE 6.9 mph 7.4 mph 66 % 0 in
19:20 63.5 °F 52.3 °F 30.1 in ESE 8.1 mph 8.1 mph 67 % 0 in
19:21 63.5 °F 52 °F 30.1 in ENE 8.1 mph 8.1 mph 66 % 0 in
19:26 63.5 °F 52 °F 30.1 in ESE 10.4 mph 10.4 mph 66 % 0 in
19:30 56.8 °F 48.9 °F 30.1 in NE 2 mph 2 mph 75 % 0 in
19:31 63.5 °F 52 °F 30.1 in ESE 5.8 mph 5.8 mph 66 % 0 in
19:36 63.5 °F 52 °F 30.1 in ENE 5.8 mph 5.8 mph 66 % 0 in
19:40 56.7 °F 48.7 °F 30.1 in NE 2 mph 3 mph 75 % 0 in
19:41 63.1 °F 51.6 °F 30.1 in ESE 8.1 mph 8.1 mph 66 % 0 in
19:46 62.8 °F 51.6 °F 30.1 in ESE 6.9 mph 6.9 mph 67 % 0 in
19:50 56.7 °F 49.3 °F 30.1 in NE 2 mph 2 mph 76 % 0 in
19:51 62.4 °F 52.2 °F 30.1 in ESE 8.1 mph 8.1 mph 69 % 0 in
19:53 62.4 °F 52.2 °F 30.1 in ESE 8.1 mph 8.1 mph 69 % 0 in
19:58 62.2 °F 52 °F 30.1 in ENE 12.1 mph 12.1 mph 69 % 0 in
20:00 56.7 °F 49.3 °F 30.1 in NNE 1 mph 2 mph 76 % 0 in
20:03 62.2 °F 52.3 °F 30.1 in ENE 9.2 mph 9.2 mph 70 % 0 in
20:08 62.1 °F 52.2 °F 30.1 in ESE 9.8 mph 9.8 mph 70 % 0 in
20:10 56.7 °F 49.3 °F 30.1 in NNE 2 mph 3 mph 76 % 0 in
20:13 61.7 °F 51.8 °F 30.1 in East 12.7 mph 12.7 mph 70 % 0 in
20:18 61.7 °F 51.8 °F 30.1 in ESE 9.2 mph 9.2 mph 70 % 0 in
20:20 56.8 °F 49.5 °F 30.1 in NNE 2 mph 3 mph 76 % 0 in
20:23 61.7 °F 51.8 °F 30.1 in ESE 6.9 mph 6.9 mph 70 % 0 in
20:28 61.7 °F 52.2 °F 30.1 in East 8.1 mph 8.1 mph 71 % 0 in
20:30 56.7 °F 49.3 °F 30.1 in NNE 2 mph 2 mph 76 % 0 in
20:33 61.5 °F 52.3 °F 30.1 in NE 5.8 mph 5.8 mph 72 % 0 in
20:38 61.3 °F 52.2 °F 30.1 in ESE 6.9 mph 6.9 mph 72 % 0 in
20:40 56.5 °F 48.9 °F 30.1 in NE 1 mph 3 mph 76 % 0 in
20:43 61 °F 52 °F 30.1 in East 5.8 mph 5.8 mph 72 % 0 in
20:48 60.8 °F 51.6 °F 30.1 in ENE 6.9 mph 6.9 mph 72 % 0 in
20:50 56.3 °F 48.7 °F 30.1 in NE 1 mph 1 mph 76 % 0 in
20:53 60.6 °F 52 °F 30.1 in ESE 10.4 mph 10.4 mph 73 % 0 in
20:58 60.3 °F 52 °F 30.1 in East 8.1 mph 8.1 mph 74 % 0 in
21:00 56.1 °F 48.7 °F 30.1 in Calm     76 % 0 in
21:03 60.3 °F 52 °F 30.1 in ESE 8.1 mph 8.1 mph 74 % 0 in
21:08 60.1 °F 52.2 °F 30.1 in ESE 9 mph 9 mph 75 % 0 in
21:10 55.9 °F 48.6 °F 30.1 in NNE 1 mph 1 mph 76 % 0 in
21:13 59.9 °F 52 °F 30.1 in NE 5.8 mph 5.8 mph 75 % 0 in
21:18 59.9 °F 52 °F 30.1 in ESE 9.2 mph 9.2 mph 75 % 0 in
21:20 55.8 °F 48.4 °F 30.1 in Calm   1 mph 76 % 0 in
21:23 59.7 °F 52.2 °F 30.1 in East 6.2 mph 6.2 mph 76 % 0 in
21:28 59.7 °F 51.8 °F 30.1 in East 6.9 mph 6.9 mph 75 % 0 in
21:30 55.4 °F 48 °F 30.1 in Calm     76 % 0 in
21:33 59.5 °F 52 °F 30.1 in ESE 5.8 mph 5.8 mph 76 % 0 in
21:38 59.5 °F 51.6 °F 30.1 in ENE 5.8 mph 5.8 mph 75 % 0 in
21:40 54.5 °F 47.1 °F 30.1 in Calm     76 % 0 in
21:43 59.5 °F 51.6 °F 30.1 in ESE 4.9 mph 4.9 mph 75 % 0 in
21:49 59.4 °F 51.4 °F 30.1 in NE 6.9 mph 6.9 mph 75 % 0 in
21:50 54.1 °F 47.1 °F 30.1 in WSW 2 mph 2 mph 77 % 0 in
21:54 59.4 °F 51.4 °F 30.1 in ENE 5.8 mph 5.8 mph 75 % 0 in
21:59 59.4 °F 51.8 °F 30.1 in ENE 4.6 mph 4.6 mph 76 % 0 in
22:00 54.1 °F 47.1 °F 30.1 in WSW 1 mph 2 mph 77 % 0 in
22:04 59.4 °F 51.8 °F 30.1 in ENE 4.6 mph 4.6 mph 76 % 0 in
22:09 59.2 °F 51.6 °F 30.1 in NE 5.8 mph 5.8 mph 76 % 0 in
22:10 54 °F 47.3 °F 30.1 in Calm     78 % 0 in
22:14 59 °F 51.4 °F 30.1 in ENE 6.9 mph 6.9 mph 76 % 0 in
22:19 59 °F 51.4 °F 30.1 in East 4.6 mph 4.6 mph 76 % 0 in
22:20 53.6 °F 46.9 °F 30.1 in SW 1 mph 2 mph 78 % 0 in
22:24 59 °F 51.4 °F 30.1 in NNE 2.4 mph 2.4 mph 76 % 0 in
22:29 58.8 °F 51.3 °F 30.1 in NNE 3.5 mph 3.5 mph 76 % 0 in
22:30 53.2 °F 46.6 °F 30.1 in Calm   2 mph 78 % 0 in
22:35 58.8 °F 51.3 °F 30.1 in ESE 4.6 mph 4.6 mph 76 % 0 in
22:40 58.6 °F 51.1 °F 30.1 in East 3.5 mph 3.5 mph 76 % 0 in
22:45 58.5 °F 50.9 °F 30.1 in ENE 3.6 mph 3.6 mph 76 % 0 in
22:50 58.3 °F 50.7 °F 30.1 in NNE 4.6 mph 4.6 mph 76 % 0 in
22:55 58.1 °F 50.5 °F 30.1 in NNE 3.5 mph 3.8 mph 76 % 0 in
23:00 58.1 °F 50.5 °F 30.1 in ENE 3.5 mph 3.5 mph 76 % 0 in
23:05 57.9 °F 50.4 °F 30.1 in NNE 4.6 mph 4.6 mph 76 % 0 in
23:10 57.7 °F 50.2 °F 30.1 in NE 2 mph 5 mph 76 % 0 in
23:15 57.7 °F 50.2 °F 30.1 in NE 4.6 mph 4.6 mph 76 % 0 in
23:20 57.6 °F 49.6 °F 30.1 in NNE 3.5 mph 3.5 mph 75 % 0 in
23:25 57.4 °F 49.5 °F 30.1 in NNE 4.6 mph 4.6 mph 75 % 0 in
23:30 57.4 °F 49.5 °F 30.1 in NNE 3.5 mph 3.5 mph 75 % 0 in
23:35 57.4 °F 49.5 °F 30.1 in NNE 3.5 mph 3.5 mph 75 % 0 in
23:40 57.4 °F 49.5 °F 30.1 in NE 3.5 mph 3.5 mph 75 % 0 in
23:45 57.2 °F 49.3 °F 30.1 in NE 4.6 mph 4.6 mph 75 % 0 in
23:50 57.2 °F 49.3 °F 30.1 in NNE 4 mph 4 mph 75 % 0 in
23:55 57.2 °F 49.3 °F 30.1 in ENE 3.5 mph 3.5 mph 75 % 0 in
Meteo Sesrovires
Elogis d' Weather Underground - 3.5 mb

Guio original per  Jim McMurry - jmcmurry@mwt.net Adaptat per a la plantilla per  Wim van der Kuil - Leuven-Template.eu

Trobareu la nostra informacio del temps tambe a:

Weather Underground

AWEKAS